sensor_id;sensor_type;location;lat;lon;timestamp;temperature;humidity
32366;DHT22;18837;46.832;16.838;2023-04-03T00:00:08;11.20;85.90
32366;DHT22;18837;46.832;16.838;2023-04-03T00:05:51;11.20;87.40
32366;DHT22;18837;46.832;16.838;2023-04-03T00:08:16;11.20;85.80
32366;DHT22;18837;46.832;16.838;2023-04-03T00:10:42;11.20;85.70
32366;DHT22;18837;46.832;16.838;2023-04-03T00:13:08;11.20;86.00
32366;DHT22;18837;46.832;16.838;2023-04-03T00:15:35;11.20;85.60
32366;DHT22;18837;46.832;16.838;2023-04-03T00:18:01;11.20;85.50
32366;DHT22;18837;46.832;16.838;2023-04-03T00:20:36;11.10;85.20
32366;DHT22;18837;46.832;16.838;2023-04-03T00:23:04;11.10;85.10
32366;DHT22;18837;46.832;16.838;2023-04-03T00:25:29;11.10;88.50
32366;DHT22;18837;46.832;16.838;2023-04-03T00:27:55;11.10;85.10
32366;DHT22;18837;46.832;16.838;2023-04-03T00:30:22;11.10;85.30
32366;DHT22;18837;46.832;16.838;2023-04-03T00:32:49;11.00;85.00
32366;DHT22;18837;46.832;16.838;2023-04-03T00:35:43;11.00;85.30
32366;DHT22;18837;46.832;16.838;2023-04-03T00:38:29;11.00;87.70
32366;DHT22;18837;46.832;16.838;2023-04-03T00:40:54;11.00;88.30
32366;DHT22;18837;46.832;16.838;2023-04-03T00:43:25;11.00;85.30
32366;DHT22;18837;46.832;16.838;2023-04-03T00:45:53;11.20;85.20
32366;DHT22;18837;46.832;16.838;2023-04-03T00:48:28;11.00;85.30
32366;DHT22;18837;46.832;16.838;2023-04-03T00:50:55;11.00;85.10
32366;DHT22;18837;46.832;16.838;2023-04-03T00:53:35;11.00;84.80
32366;DHT22;18837;46.832;16.838;2023-04-03T00:56:06;11.00;88.20
32366;DHT22;18837;46.832;16.838;2023-04-03T00:58:41;11.00;85.50
32366;DHT22;18837;46.832;16.838;2023-04-03T01:01:12;11.00;85.40
32366;DHT22;18837;46.832;16.838;2023-04-03T01:03:39;11.00;85.40
32366;DHT22;18837;46.832;16.838;2023-04-03T01:06:05;11.00;85.90
32366;DHT22;18837;46.832;16.838;2023-04-03T01:08:51;11.00;85.10
32366;DHT22;18837;46.832;16.838;2023-04-03T01:14:39;10.90;87.90
32366;DHT22;18837;46.832;16.838;2023-04-03T01:17:28;11.00;86.00
32366;DHT22;18837;46.832;16.838;2023-04-03T01:25:17;10.90;89.10
32366;DHT22;18837;46.832;16.838;2023-04-03T01:27:59;10.90;85.30
32366;DHT22;18837;46.832;16.838;2023-04-03T01:30:30;10.90;85.30
32366;DHT22;18837;46.832;16.838;2023-04-03T01:32:56;10.90;85.30
32366;DHT22;18837;46.832;16.838;2023-04-03T01:35:22;10.90;85.80
32366;DHT22;18837;46.832;16.838;2023-04-03T01:37:48;10.90;85.50
32366;DHT22;18837;46.832;16.838;2023-04-03T01:40:14;10.90;85.10
32366;DHT22;18837;46.832;16.838;2023-04-03T01:43:04;10.90;85.30
32366;DHT22;18837;46.832;16.838;2023-04-03T01:48:48;10.80;88.10
32366;DHT22;18837;46.832;16.838;2023-04-03T01:51:14;10.80;85.10
32366;DHT22;18837;46.832;16.838;2023-04-03T01:53:40;10.80;85.30
32366;DHT22;18837;46.832;16.838;2023-04-03T01:56:07;10.80;85.10
32366;DHT22;18837;46.832;16.838;2023-04-03T01:58:33;10.80;85.40
32366;DHT22;18837;46.832;16.838;2023-04-03T02:00:58;10.80;85.50
32366;DHT22;18837;46.832;16.838;2023-04-03T02:03:33;10.80;85.00
32366;DHT22;18837;46.832;16.838;2023-04-03T02:05:59;10.80;85.20
32366;DHT22;18837;46.832;16.838;2023-04-03T02:08:25;10.80;85.50
32366;DHT22;18837;46.832;16.838;2023-04-03T02:10:51;10.70;85.30
32366;DHT22;18837;46.832;16.838;2023-04-03T02:13:18;10.70;85.50
32366;DHT22;18837;46.832;16.838;2023-04-03T02:15:44;10.70;84.70
32366;DHT22;18837;46.832;16.838;2023-04-03T02:21:53;10.70;87.10
32366;DHT22;18837;46.832;16.838;2023-04-03T02:24:18;10.70;87.60
32366;DHT22;18837;46.832;16.838;2023-04-03T02:26:44;10.70;85.60
32366;DHT22;18837;46.832;16.838;2023-04-03T02:29:10;10.70;85.30
32366;DHT22;18837;46.832;16.838;2023-04-03T02:31:36;10.60;85.10
32366;DHT22;18837;46.832;16.838;2023-04-03T02:34:01;10.60;85.40
32366;DHT22;18837;46.832;16.838;2023-04-03T02:36:47;10.60;84.70
32366;DHT22;18837;46.832;16.838;2023-04-03T02:39:13;10.60;88.40
32366;DHT22;18837;46.832;16.838;2023-04-03T02:41:39;10.60;85.60
32366;DHT22;18837;46.832;16.838;2023-04-03T02:44:09;10.60;85.70
32366;DHT22;18837;46.832;16.838;2023-04-03T02:46:35;10.60;85.30
32366;DHT22;18837;46.832;16.838;2023-04-03T02:49:02;10.60;85.60
32366;DHT22;18837;46.832;16.838;2023-04-03T02:51:43;10.60;85.20
32366;DHT22;18837;46.832;16.838;2023-04-03T02:57:50;10.50;88.50
32366;DHT22;18837;46.832;16.838;2023-04-03T03:00:17;10.50;85.30
32366;DHT22;18837;46.832;16.838;2023-04-03T03:02:42;10.50;86.40
32366;DHT22;18837;46.832;16.838;2023-04-03T03:05:08;10.50;85.40
32366;DHT22;18837;46.832;16.838;2023-04-03T03:07:34;10.50;85.30
32366;DHT22;18837;46.832;16.838;2023-04-03T03:10:19;10.50;86.10
32366;DHT22;18837;46.832;16.838;2023-04-03T03:12:45;10.50;86.00
32366;DHT22;18837;46.832;16.838;2023-04-03T03:15:11;10.50;85.70
32366;DHT22;18837;46.832;16.838;2023-04-03T03:17:37;10.50;85.20
32366;DHT22;18837;46.832;16.838;2023-04-03T03:20:05;10.40;85.40
32366;DHT22;18837;46.832;16.838;2023-04-03T03:22:31;10.40;86.50
32366;DHT22;18837;46.832;16.838;2023-04-03T03:24:57;10.40;84.70
32366;DHT22;18837;46.832;16.838;2023-04-03T03:27:47;10.40;85.00
32366;DHT22;18837;46.832;16.838;2023-04-03T03:30:33;10.40;88.70
32366;DHT22;18837;46.832;16.838;2023-04-03T03:32:59;10.40;88.70
32366;DHT22;18837;46.832;16.838;2023-04-03T03:35:25;10.40;85.20
32366;DHT22;18837;46.832;16.838;2023-04-03T03:37:51;10.40;85.60
32366;DHT22;18837;46.832;16.838;2023-04-03T03:40:17;10.30;85.40
32366;DHT22;18837;46.832;16.838;2023-04-03T03:42:42;10.30;85.20
32366;DHT22;18837;46.832;16.838;2023-04-03T03:45:23;10.30;85.30
32366;DHT22;18837;46.832;16.838;2023-04-03T03:47:50;10.30;85.40
32366;DHT22;18837;46.832;16.838;2023-04-03T03:50:16;10.30;85.30
32366;DHT22;18837;46.832;16.838;2023-04-03T03:52:41;10.30;85.60
32366;DHT22;18837;46.832;16.838;2023-04-03T03:55:07;10.30;85.10
32366;DHT22;18837;46.832;16.838;2023-04-03T03:57:33;10.20;85.60
32366;DHT22;18837;46.832;16.838;2023-04-03T04:00:18;10.20;85.30
32366;DHT22;18837;46.832;16.838;2023-04-03T04:03:03;10.20;86.10
32366;DHT22;18837;46.832;16.838;2023-04-03T04:05:50;10.20;88.30
32366;DHT22;18837;46.832;16.838;2023-04-03T04:08:17;10.20;88.40
32366;DHT22;18837;46.832;16.838;2023-04-03T04:10:43;10.20;85.60
32366;DHT22;18837;46.832;16.838;2023-04-03T04:13:09;10.20;85.20
32366;DHT22;18837;46.832;16.838;2023-04-03T04:15:34;10.20;85.40
32366;DHT22;18837;46.832;16.838;2023-04-03T04:18:00;10.20;85.20
32366;DHT22;18837;46.832;16.838;2023-04-03T04:20:41;10.20;85.10
32366;DHT22;18837;46.832;16.838;2023-04-03T04:23:07;10.10;85.60
32366;DHT22;18837;46.832;16.838;2023-04-03T04:25:32;10.10;85.30
32366;DHT22;18837;46.832;16.838;2023-04-03T04:27:58;10.10;85.30
32366;DHT22;18837;46.832;16.838;2023-04-03T04:30:24;10.10;85.70
32366;DHT22;18837;46.832;16.838;2023-04-03T04:32:50;10.10;85.60
32366;DHT22;18837;46.832;16.838;2023-04-03T04:35:50;10.10;85.30
32366;DHT22;18837;46.832;16.838;2023-04-03T04:38:52;10.10;90.00
32366;DHT22;18837;46.832;16.838;2023-04-03T04:41:22;10.10;90.00
32366;DHT22;18837;46.832;16.838;2023-04-03T04:43:51;10.10;85.60
32366;DHT22;18837;46.832;16.838;2023-04-03T04:46:18;10.10;85.50
32366;DHT22;18837;46.832;16.838;2023-04-03T04:48:44;10.00;85.30
32366;DHT22;18837;46.832;16.838;2023-04-03T04:51:10;10.10;85.90
32366;DHT22;18837;46.832;16.838;2023-04-03T04:53:50;10.10;85.70
32366;DHT22;18837;46.832;16.838;2023-04-03T04:56:15;10.10;89.90
32366;DHT22;18837;46.832;16.838;2023-04-03T04:58:41;10.10;85.60
32366;DHT22;18837;46.832;16.838;2023-04-03T05:01:09;10.10;86.50
32366;DHT22;18837;46.832;16.838;2023-04-03T05:03:35;10.00;85.40
32366;DHT22;18837;46.832;16.838;2023-04-03T05:06:01;10.10;85.70
32366;DHT22;18837;46.832;16.838;2023-04-03T05:08:27;10.10;85.50
32366;DHT22;18837;46.832;16.838;2023-04-03T05:14:14;10.10;89.20
32366;DHT22;18837;46.832;16.838;2023-04-03T05:16:41;10.10;86.00
32366;DHT22;18837;46.832;16.838;2023-04-03T05:19:07;10.10;86.10
32366;DHT22;18837;46.832;16.838;2023-04-03T05:21:32;10.10;86.40
32366;DHT22;18837;46.832;16.838;2023-04-03T05:23:59;10.10;85.20
32366;DHT22;18837;46.832;16.838;2023-04-03T05:26:28;10.10;85.00
32366;DHT22;18837;46.832;16.838;2023-04-03T05:29:20;10.10;85.90
32366;DHT22;18837;46.832;16.838;2023-04-03T05:31:48;10.10;85.00
32366;DHT22;18837;46.832;16.838;2023-04-03T05:34:14;10.00;84.80
32366;DHT22;18837;46.832;16.838;2023-04-03T05:36:40;10.00;87.10
32366;DHT22;18837;46.832;16.838;2023-04-03T05:39:07;10.00;85.50
32366;DHT22;18837;46.832;16.838;2023-04-03T05:41:32;10.00;85.00
32366;DHT22;18837;46.832;16.838;2023-04-03T05:44:20;10.00;84.90
32366;DHT22;18837;46.832;16.838;2023-04-03T05:47:51;10.00;88.60
32366;DHT22;18837;46.832;16.838;2023-04-03T05:50:17;10.00;88.10
32366;DHT22;18837;46.832;16.838;2023-04-03T05:52:46;10.00;86.20
32366;DHT22;18837;46.832;16.838;2023-04-03T05:55:13;10.00;84.30
32366;DHT22;18837;46.832;16.838;2023-04-03T05:57:39;10.00;84.60
32366;DHT22;18837;46.832;16.838;2023-04-03T06:00:06;10.00;84.50
32366;DHT22;18837;46.832;16.838;2023-04-03T06:02:41;10.00;85.60
32366;DHT22;18837;46.832;16.838;2023-04-03T06:05:08;10.00;85.60
32366;DHT22;18837;46.832;16.838;2023-04-03T06:07:35;10.00;85.30
32366;DHT22;18837;46.832;16.838;2023-04-03T06:10:01;10.00;84.90
32366;DHT22;18837;46.832;16.838;2023-04-03T06:12:27;10.00;84.30
32366;DHT22;18837;46.832;16.838;2023-04-03T06:14:55;10.00;86.30
32366;DHT22;18837;46.832;16.838;2023-04-03T06:17:21;9.90;84.90
32366;DHT22;18837;46.832;16.838;2023-04-03T06:20:12;9.90;84.20
32366;DHT22;18837;46.832;16.838;2023-04-03T06:23:00;9.90;88.60
32366;DHT22;18837;46.832;16.838;2023-04-03T06:25:25;9.90;85.30
32366;DHT22;18837;46.832;16.838;2023-04-03T06:27:52;9.90;85.10
32366;DHT22;18837;46.832;16.838;2023-04-03T06:30:18;9.90;84.90
32366;DHT22;18837;46.832;16.838;2023-04-03T06:32:43;10.00;84.70
32366;DHT22;18837;46.832;16.838;2023-04-03T06:35:09;9.90;84.70
32366;DHT22;18837;46.832;16.838;2023-04-03T08:08:43;9.90;82.10
32366;DHT22;18837;46.832;16.838;2023-04-03T08:11:09;9.80;79.60
32366;DHT22;18837;46.832;16.838;2023-04-03T08:13:35;9.80;81.40
32366;DHT22;18837;46.832;16.838;2023-04-03T08:16:09;9.80;82.90
32366;DHT22;18837;46.832;16.838;2023-04-03T08:18:35;9.80;82.90
32366;DHT22;18837;46.832;16.838;2023-04-03T08:21:25;9.90;83.20
32366;DHT22;18837;46.832;16.838;2023-04-03T08:23:51;9.90;86.40
32366;DHT22;18837;46.832;16.838;2023-04-03T08:26:20;9.90;83.30
32366;DHT22;18837;46.832;16.838;2023-04-03T08:28:47;9.90;83.00
32366;DHT22;18837;46.832;16.838;2023-04-03T08:31:15;10.00;83.00
32366;DHT22;18837;46.832;16.838;2023-04-03T08:33:42;10.00;83.00
32366;DHT22;18837;46.832;16.838;2023-04-03T08:36:33;10.00;83.40
32366;DHT22;18837;46.832;16.838;2023-04-03T08:45:50;10.00;86.10
32366;DHT22;18837;46.832;16.838;2023-04-03T08:50:51;10.00;84.10
32366;DHT22;18837;46.832;16.838;2023-04-03T08:53:21;10.00;83.50
32366;DHT22;18837;46.832;16.838;2023-04-03T08:56:08;10.00;83.80
32366;DHT22;18837;46.832;16.838;2023-04-03T08:58:55;10.10;83.60
32366;DHT22;18837;46.832;16.838;2023-04-03T09:01:38;10.00;85.30
32366;DHT22;18837;46.832;16.838;2023-04-03T09:04:13;10.10;86.90
32366;DHT22;18837;46.832;16.838;2023-04-03T09:06:43;10.10;86.40
32366;DHT22;18837;46.832;16.838;2023-04-03T09:09:15;10.10;83.30
32366;DHT22;18837;46.832;16.838;2023-04-03T09:15:23;10.10;87.30
32366;DHT22;18837;46.832;16.838;2023-04-03T09:17:58;10.10;86.30
32366;DHT22;18837;46.832;16.838;2023-04-03T09:25:49;10.10;84.10
32366;DHT22;18837;46.832;16.838;2023-04-03T09:28:16;10.10;84.00
32366;DHT22;18837;46.832;16.838;2023-04-03T09:30:42;10.10;83.90
32366;DHT22;18837;46.832;16.838;2023-04-03T09:33:08;10.10;83.70
32366;DHT22;18837;46.832;16.838;2023-04-03T09:35:36;10.20;83.10
32366;DHT22;18837;46.832;16.838;2023-04-03T09:40:39;10.20;84.00
32366;DHT22;18837;46.832;16.838;2023-04-03T09:43:27;10.20;83.20
32366;DHT22;18837;46.832;16.838;2023-04-03T09:49:31;10.20;87.20
32366;DHT22;18837;46.832;16.838;2023-04-03T09:51:57;10.20;84.30
32366;DHT22;18837;46.832;16.838;2023-04-03T09:57:11;10.30;83.90
32366;DHT22;18837;46.832;16.838;2023-04-03T09:59:58;10.30;84.10
32366;DHT22;18837;46.832;16.838;2023-04-03T10:02:41;10.30;83.20
32366;DHT22;18837;46.832;16.838;2023-04-03T10:10:46;10.20;86.10
32366;DHT22;18837;46.832;16.838;2023-04-03T10:13:21;10.30;82.90
32366;DHT22;18837;46.832;16.838;2023-04-03T10:18:45;10.30;84.90
32366;DHT22;18837;46.832;16.838;2023-04-03T10:45:03;10.20;86.00
32366;DHT22;18837;46.832;16.838;2023-04-03T10:53:37;10.20;86.30
32366;DHT22;18837;46.832;16.838;2023-04-03T10:59:51;10.30;85.40
32366;DHT22;18837;46.832;16.838;2023-04-03T11:04:55;10.30;82.40
32366;DHT22;18837;46.832;16.838;2023-04-03T11:07:28;10.30;82.30
32366;DHT22;18837;46.832;16.838;2023-04-03T11:10:17;10.30;82.40
32366;DHT22;18837;46.832;16.838;2023-04-03T11:13:07;10.30;83.20
32366;DHT22;18837;46.832;16.838;2023-04-03T11:15:49;10.30;85.20
32366;DHT22;18837;46.832;16.838;2023-04-03T11:18:37;10.40;82.00
32366;DHT22;18837;46.832;16.838;2023-04-03T11:21:28;10.30;85.20
32366;DHT22;18837;46.832;16.838;2023-04-03T11:23:57;10.40;84.80
32366;DHT22;18837;46.832;16.838;2023-04-03T11:26:29;10.30;82.10
32366;DHT22;18837;46.832;16.838;2023-04-03T11:29:24;10.30;81.80
32366;DHT22;18837;46.832;16.838;2023-04-03T11:35:28;10.30;85.10
32366;DHT22;18837;46.832;16.838;2023-04-03T11:37:55;10.40;81.30
32366;DHT22;18837;46.832;16.838;2023-04-03T11:40:30;10.40;81.50
32366;DHT22;18837;46.832;16.838;2023-04-03T11:48:45;10.40;84.70
32366;DHT22;18837;46.832;16.838;2023-04-03T11:53:46;10.40;83.40
32366;DHT22;18837;46.832;16.838;2023-04-03T12:01:46;10.40;81.80
32366;DHT22;18837;46.832;16.838;2023-04-03T12:05:24;10.40;84.40
32366;DHT22;18837;46.832;16.838;2023-04-03T12:16:33;10.30;83.80
32366;DHT22;18837;46.832;16.838;2023-04-03T12:19:02;10.30;83.50
32366;DHT22;18837;46.832;16.838;2023-04-03T12:24:27;10.30;83.10
32366;DHT22;18837;46.832;16.838;2023-04-03T12:32:26;10.30;80.00
32366;DHT22;18837;46.832;16.838;2023-04-03T12:44:35;10.40;82.10
32366;DHT22;18837;46.832;16.838;2023-04-03T12:47:31;10.40;82.50
32366;DHT22;18837;46.832;16.838;2023-04-03T12:49:54;10.40;79.80
32366;DHT22;18837;46.832;16.838;2023-04-03T12:52:38;10.10;79.20
32366;DHT22;18837;46.832;16.838;2023-04-03T12:55:17;10.40;82.90
32366;DHT22;18837;46.832;16.838;2023-04-03T12:57:44;10.40;80.20
32366;DHT22;18837;46.832;16.838;2023-04-03T13:00:34;10.40;79.70
32366;DHT22;18837;46.832;16.838;2023-04-03T13:03:05;10.40;80.40
32366;DHT22;18837;46.832;16.838;2023-04-03T13:05:32;10.40;78.20
32366;DHT22;18837;46.832;16.838;2023-04-03T13:08:01;10.40;78.80
32366;DHT22;18837;46.832;16.838;2023-04-03T13:10:29;10.40;79.40
32366;DHT22;18837;46.832;16.838;2023-04-03T13:13:09;10.40;79.10
32366;DHT22;18837;46.832;16.838;2023-04-03T13:16:00;10.30;78.60
32366;DHT22;18837;46.832;16.838;2023-04-03T13:18:57;10.40;83.30
32366;DHT22;18837;46.832;16.838;2023-04-03T13:21:29;10.40;79.60
32366;DHT22;18837;46.832;16.838;2023-04-03T13:24:01;10.40;78.80
32366;DHT22;18837;46.832;16.838;2023-04-03T13:26:31;10.40;78.90
32366;DHT22;18837;46.832;16.838;2023-04-03T13:29:07;10.40;78.30
32366;DHT22;18837;46.832;16.838;2023-04-03T13:31:55;10.40;79.30
32366;DHT22;18837;46.832;16.838;2023-04-03T13:34:23;10.40;78.80
32366;DHT22;18837;46.832;16.838;2023-04-03T13:41:50;10.40;77.90
32366;DHT22;18837;46.832;16.838;2023-04-03T13:53:19;10.40;80.00
32366;DHT22;18837;46.832;16.838;2023-04-03T14:01:22;10.40;78.80
32366;DHT22;18837;46.832;16.838;2023-04-03T14:04:01;10.40;77.70
32366;DHT22;18837;46.832;16.838;2023-04-03T14:06:48;10.30;78.20
32366;DHT22;18837;46.832;16.838;2023-04-03T14:09:15;10.30;79.30
32366;DHT22;18837;46.832;16.838;2023-04-03T14:11:42;10.40;78.70
32366;DHT22;18837;46.832;16.838;2023-04-03T14:14:20;10.30;78.60
32366;DHT22;18837;46.832;16.838;2023-04-03T14:16:51;10.30;78.50
32366;DHT22;18837;46.832;16.838;2023-04-03T14:19:22;10.20;77.90
32366;DHT22;18837;46.832;16.838;2023-04-03T14:21:55;10.20;76.80
32366;DHT22;18837;46.832;16.838;2023-04-03T14:27:42;10.20;79.60
32366;DHT22;18837;46.832;16.838;2023-04-03T14:30:18;10.20;78.20
32366;DHT22;18837;46.832;16.838;2023-04-03T14:32:45;10.30;78.30
32366;DHT22;18837;46.832;16.838;2023-04-03T14:38:02;10.20;77.00
32366;DHT22;18837;46.832;16.838;2023-04-03T14:40:28;10.30;78.00
32366;DHT22;18837;46.832;16.838;2023-04-03T14:42:58;10.20;77.50
32366;DHT22;18837;46.832;16.838;2023-04-03T14:45:24;10.20;77.80
32366;DHT22;18837;46.832;16.838;2023-04-03T14:47:53;10.20;77.50
32366;DHT22;18837;46.832;16.838;2023-04-03T14:50:23;10.20;77.60
32366;DHT22;18837;46.832;16.838;2023-04-03T14:52:50;10.20;78.30
32366;DHT22;18837;46.832;16.838;2023-04-03T14:55:19;10.20;78.40
32366;DHT22;18837;46.832;16.838;2023-04-03T15:01:23;10.20;79.80
32366;DHT22;18837;46.832;16.838;2023-04-03T15:03:49;10.20;80.80
32366;DHT22;18837;46.832;16.838;2023-04-03T15:06:15;10.20;78.50
32366;DHT22;18837;46.832;16.838;2023-04-03T15:08:42;10.20;78.20
32366;DHT22;18837;46.832;16.838;2023-04-03T15:11:10;10.20;78.40
32366;DHT22;18837;46.832;16.838;2023-04-03T15:13:37;10.20;78.00
32366;DHT22;18837;46.832;16.838;2023-04-03T15:16:28;10.20;78.00
32366;DHT22;18837;46.832;16.838;2023-04-03T15:18:55;10.20;79.30
32366;DHT22;18837;46.832;16.838;2023-04-03T15:21:21;10.20;77.80
32366;DHT22;18837;46.832;16.838;2023-04-03T15:23:46;10.20;77.80
32366;DHT22;18837;46.832;16.838;2023-04-03T15:26:12;10.20;78.20
32366;DHT22;18837;46.832;16.838;2023-04-03T15:28:42;10.10;78.20
32366;DHT22;18837;46.832;16.838;2023-04-03T15:31:10;10.20;77.70
32366;DHT22;18837;46.832;16.838;2023-04-03T15:34:00;10.20;78.20
32366;DHT22;18837;46.832;16.838;2023-04-03T15:36:38;10.10;78.80
32366;DHT22;18837;46.832;16.838;2023-04-03T15:39:04;10.10;77.40
32366;DHT22;18837;46.832;16.838;2023-04-03T15:41:29;10.00;77.00
32366;DHT22;18837;46.832;16.838;2023-04-03T15:43:55;10.00;77.60
32366;DHT22;18837;46.832;16.838;2023-04-03T15:46:22;10.00;77.90
32366;DHT22;18837;46.832;16.838;2023-04-03T15:48:47;10.00;77.70
32366;DHT22;18837;46.832;16.838;2023-04-03T15:51:30;9.90;77.40
32366;DHT22;18837;46.832;16.838;2023-04-03T15:53:56;10.00;77.10
32366;DHT22;18837;46.832;16.838;2023-04-03T15:56:22;9.90;77.10
32366;DHT22;18837;46.832;16.838;2023-04-03T15:58:47;9.90;78.20
32366;DHT22;18837;46.832;16.838;2023-04-03T16:01:13;9.90;77.80
32366;DHT22;18837;46.832;16.838;2023-04-03T16:03:41;9.90;78.50
32366;DHT22;18837;46.832;16.838;2023-04-03T16:09:51;9.90;79.80
32366;DHT22;18837;46.832;16.838;2023-04-03T16:12:17;9.90;77.00
32366;DHT22;18837;46.832;16.838;2023-04-03T16:14:43;9.80;76.70
32366;DHT22;18837;46.832;16.838;2023-04-03T16:17:09;9.80;78.30
32366;DHT22;18837;46.832;16.838;2023-04-03T16:19:36;9.80;78.00
32366;DHT22;18837;46.832;16.838;2023-04-03T16:22:02;9.80;77.20
32366;DHT22;18837;46.832;16.838;2023-04-03T16:24:37;9.80;77.10
32366;DHT22;18837;46.832;16.838;2023-04-03T16:27:04;9.80;77.10
32366;DHT22;18837;46.832;16.838;2023-04-03T16:29:29;9.80;76.80
32366;DHT22;18837;46.832;16.838;2023-04-03T16:31:56;9.80;77.80
32366;DHT22;18837;46.832;16.838;2023-04-03T16:34:22;9.80;76.80
32366;DHT22;18837;46.832;16.838;2023-04-03T16:36:48;9.70;76.60
32366;DHT22;18837;46.832;16.838;2023-04-03T16:39:14;9.70;77.40
32366;DHT22;18837;46.832;16.838;2023-04-03T16:45:34;9.70;77.80
32366;DHT22;18837;46.832;16.838;2023-04-03T16:48:00;9.70;77.70
32366;DHT22;18837;46.832;16.838;2023-04-03T16:50:25;9.70;77.30
32366;DHT22;18837;46.832;16.838;2023-04-03T16:52:51;9.70;77.10
32366;DHT22;18837;46.832;16.838;2023-04-03T16:55:17;9.60;74.20
32366;DHT22;18837;46.832;16.838;2023-04-03T16:57:43;9.60;75.30
32366;DHT22;18837;46.832;16.838;2023-04-03T17:00:21;9.60;76.50
32366;DHT22;18837;46.832;16.838;2023-04-03T17:02:47;9.50;76.10
32366;DHT22;18837;46.832;16.838;2023-04-03T17:05:13;9.60;77.00
32366;DHT22;18837;46.832;16.838;2023-04-03T17:07:39;9.60;77.20
32366;DHT22;18837;46.832;16.838;2023-04-03T17:10:05;9.60;78.50
32366;DHT22;18837;46.832;16.838;2023-04-03T17:12:31;9.60;77.50
32366;DHT22;18837;46.832;16.838;2023-04-03T17:15:16;9.60;76.70
32366;DHT22;18837;46.832;16.838;2023-04-03T17:18:06;9.50;79.00
32366;DHT22;18837;46.832;16.838;2023-04-03T17:20:56;9.50;78.10
32366;DHT22;18837;46.832;16.838;2023-04-03T17:23:23;9.50;77.00
32366;DHT22;18837;46.832;16.838;2023-04-03T17:25:49;9.50;77.20
32366;DHT22;18837;46.832;16.838;2023-04-03T17:28:15;9.50;76.60
32366;DHT22;18837;46.832;16.838;2023-04-03T17:30:41;9.50;76.70
32366;DHT22;18837;46.832;16.838;2023-04-03T17:33:08;9.50;76.90
32366;DHT22;18837;46.832;16.838;2023-04-03T17:35:49;9.50;76.40
32366;DHT22;18837;46.832;16.838;2023-04-03T17:38:15;9.50;76.80
32366;DHT22;18837;46.832;16.838;2023-04-03T17:40:41;9.40;77.10
32366;DHT22;18837;46.832;16.838;2023-04-03T17:43:07;9.40;76.60
32366;DHT22;18837;46.832;16.838;2023-04-03T17:45:32;9.40;76.20
32366;DHT22;18837;46.832;16.838;2023-04-03T17:47:58;9.40;77.00
32366;DHT22;18837;46.832;16.838;2023-04-03T17:54:11;9.40;78.30
32366;DHT22;18837;46.832;16.838;2023-04-03T17:56:37;9.40;78.10
32366;DHT22;18837;46.832;16.838;2023-04-03T17:59:03;9.40;77.10
32366;DHT22;18837;46.832;16.838;2023-04-03T18:01:31;9.30;76.00
32366;DHT22;18837;46.832;16.838;2023-04-03T18:03:59;9.30;76.90
32366;DHT22;18837;46.832;16.838;2023-04-03T18:06:30;9.30;76.30
32366;DHT22;18837;46.832;16.838;2023-04-03T18:11:42;9.30;77.60
32366;DHT22;18837;46.832;16.838;2023-04-03T18:14:09;9.30;76.90
32366;DHT22;18837;46.832;16.838;2023-04-03T18:16:35;9.30;76.60
32366;DHT22;18837;46.832;16.838;2023-04-03T18:19:01;9.30;76.50
32366;DHT22;18837;46.832;16.838;2023-04-03T18:21:27;9.30;76.30
32366;DHT22;18837;46.832;16.838;2023-04-03T18:24:12;9.30;76.00
32366;DHT22;18837;46.832;16.838;2023-04-03T18:30:09;9.20;78.10
32366;DHT22;18837;46.832;16.838;2023-04-03T18:32:35;9.20;77.70
32366;DHT22;18837;46.832;16.838;2023-04-03T18:35:02;9.20;76.30
32366;DHT22;18837;46.832;16.838;2023-04-03T18:37:28;9.20;76.50
32366;DHT22;18837;46.832;16.838;2023-04-03T18:39:54;9.20;76.60
32366;DHT22;18837;46.832;16.838;2023-04-03T18:42:24;9.20;76.80
32366;DHT22;18837;46.832;16.838;2023-04-03T18:45:03;9.20;76.40
32366;DHT22;18837;46.832;16.838;2023-04-03T18:47:30;9.20;76.20
32366;DHT22;18837;46.832;16.838;2023-04-03T18:49:56;9.10;76.60
32366;DHT22;18837;46.832;16.838;2023-04-03T18:52:22;9.10;76.40
32366;DHT22;18837;46.832;16.838;2023-04-03T18:54:51;9.10;76.60
32366;DHT22;18837;46.832;16.838;2023-04-03T18:57:16;9.10;75.80
32366;DHT22;18837;46.832;16.838;2023-04-03T19:03:26;9.10;77.10
32366;DHT22;18837;46.832;16.838;2023-04-03T19:05:53;9.10;77.90
32366;DHT22;18837;46.832;16.838;2023-04-03T19:08:18;9.00;76.50
32366;DHT22;18837;46.832;16.838;2023-04-03T19:10:45;9.00;76.30
32366;DHT22;18837;46.832;16.838;2023-04-03T19:13:10;9.00;76.40
32366;DHT22;18837;46.832;16.838;2023-04-03T19:15:36;9.00;76.20
32366;DHT22;18837;46.832;16.838;2023-04-03T19:18:21;9.00;76.10
32366;DHT22;18837;46.832;16.838;2023-04-03T19:20:46;9.00;75.90
32366;DHT22;18837;46.832;16.838;2023-04-03T19:23:12;9.00;75.70
32366;DHT22;18837;46.832;16.838;2023-04-03T19:25:38;9.00;75.70
32366;DHT22;18837;46.832;16.838;2023-04-03T19:28:05;9.00;75.60
32366;DHT22;18837;46.832;16.838;2023-04-03T19:30:31;8.90;75.60
32366;DHT22;18837;46.832;16.838;2023-04-03T19:33:25;8.90;75.20
32366;DHT22;18837;46.832;16.838;2023-04-03T19:39:16;8.90;77.50
32366;DHT22;18837;46.832;16.838;2023-04-03T19:41:42;8.90;76.00
32366;DHT22;18837;46.832;16.838;2023-04-03T19:44:09;8.90;75.80
32366;DHT22;18837;46.832;16.838;2023-04-03T19:46:35;8.90;76.00
32366;DHT22;18837;46.832;16.838;2023-04-03T19:49:01;8.90;75.90
32366;DHT22;18837;46.832;16.838;2023-04-03T19:51:26;8.90;75.90
32366;DHT22;18837;46.832;16.838;2023-04-03T19:54:08;8.80;76.00
32366;DHT22;18837;46.832;16.838;2023-04-03T19:56:33;8.80;76.20
32366;DHT22;18837;46.832;16.838;2023-04-03T19:58:59;8.80;75.90
32366;DHT22;18837;46.832;16.838;2023-04-03T20:01:25;8.80;75.50
32366;DHT22;18837;46.832;16.838;2023-04-03T20:03:52;8.80;75.90
32366;DHT22;18837;46.832;16.838;2023-04-03T20:06:18;8.70;76.00
32366;DHT22;18837;46.832;16.838;2023-04-03T20:12:15;8.80;77.40
32366;DHT22;18837;46.832;16.838;2023-04-03T20:14:41;8.70;75.80
32366;DHT22;18837;46.832;16.838;2023-04-03T20:17:08;8.70;75.50
32366;DHT22;18837;46.832;16.838;2023-04-03T20:19:34;8.70;75.90
32366;DHT22;18837;46.832;16.838;2023-04-03T20:22:00;8.70;75.60
32366;DHT22;18837;46.832;16.838;2023-04-03T20:24:26;8.70;75.60
32366;DHT22;18837;46.832;16.838;2023-04-03T20:27:13;8.70;76.40
32366;DHT22;18837;46.832;16.838;2023-04-03T20:29:40;8.70;75.90
32366;DHT22;18837;46.832;16.838;2023-04-03T20:32:06;8.70;75.10